Time;durP1;ratioP1;P1;durP2;ratioP2;P2;SDS_P1;SDS_P2;PMS_P1;PMS_P2;Temp;Humidity;BMP_temperature;BMP_pressure;BME280_temperature;BME280_humidity;BME280_pressure;Samples;Min_cycle;Max_cycle;Signal;HPM_P1;HPM_P2
2023/11/20 00:02:10;;;;;;;0.00;0.00;;;8.40;100.00;;;;;;4935263;28;20044;-78
2023/11/20 00:04:37;;;;;;;0.00;0.00;;;8.40;100.00;;;;;;4922201;28;20463;-77
2023/11/20 00:07:05;;;;;;;0.00;0.00;;;8.40;100.00;;;;;;4947485;28;20045;-77
2023/11/20 00:09:32;;;;;;;0.00;0.00;;;8.40;100.00;;;;;;4924792;28;20051;-79
2023/11/20 00:12:00;;;;;;;0.00;0.00;;;8.40;100.00;;;;;;4930513;28;20048;-78
2023/11/20 00:14:27;;;;;;;0.00;0.00;;;8.40;100.00;;;;;;4925205;28;20048;-79
2023/11/20 00:16:54;;;;;;;0.00;0.00;;;8.40;100.00;;;;;;4925908;28;20117;-79
2023/11/20 00:19:22;;;;;;;0.00;0.00;;;8.40;100.00;;;;;;4923399;28;21973;-79
2023/11/20 00:21:49;;;;;;;0.00;0.00;;;8.40;100.00;;;;;;4921773;28;20194;-78
2023/11/20 00:24:16;;;;;;;0.00;0.00;;;8.40;100.00;;;;;;4925721;28;20052;-78
2023/11/20 00:26:43;;;;;;;0.00;0.00;;;8.40;100.00;;;;;;4939164;28;20048;-77
2023/11/20 00:29:10;;;;;;;0.00;0.00;;;8.40;100.00;;;;;;4946230;28;20129;-77
2023/11/20 00:31:37;;;;;;;0.00;0.00;;;8.40;100.00;;;;;;4928631;28;20052;-78
2023/11/20 00:34:04;;;;;;;0.00;0.00;;;8.40;100.00;;;;;;4939547;28;20090;-77
2023/11/20 00:36:31;;;;;;;0.00;0.00;;;8.40;100.00;;;;;;4938654;28;20044;-80
2023/11/20 00:38:58;;;;;;;0.00;0.00;;;8.40;100.00;;;;;;4955445;28;20043;-78
2023/11/20 00:41:25;;;;;;;0.00;0.00;;;8.40;100.00;;;;;;4930747;28;20113;-77
2023/11/20 00:43:52;;;;;;;0.00;0.00;;;8.40;100.00;;;;;;4940165;28;20073;-77
2023/11/20 00:46:19;;;;;;;0.00;0.00;;;8.40;100.00;;;;;;4940305;28;20113;-78
2023/11/20 00:48:46;;;;;;;0.00;0.00;;;8.40;100.00;;;;;;4963131;28;20079;-79
2023/11/20 00:51:13;;;;;;;0.00;0.00;;;8.40;100.00;;;;;;4923069;28;20591;-79
2023/11/20 00:53:41;;;;;;;0.00;0.00;;;8.40;100.00;;;;;;4948739;28;20060;-77
2023/11/20 00:56:08;;;;;;;0.00;0.00;;;8.40;100.00;;;;;;4930730;28;20059;-77
2023/11/20 00:58:35;;;;;;;0.00;0.00;;;8.40;100.00;;;;;;4923100;28;20090;-79
2023/11/20 01:01:02;;;;;;;0.00;0.00;;;8.30;100.00;;;;;;4932407;28;20098;-79
2023/11/20 01:03:31;;;;;;;0.00;0.00;;;8.30;100.00;;;;;;4935112;28;20044;-79
2023/11/20 01:06:00;;;;;;;0.00;0.00;;;8.30;100.00;;;;;;5009310;28;20407;-79
2023/11/20 01:08:26;;;;;;;0.00;0.00;;;8.30;100.00;;;;;;4935208;28;20049;-78
2023/11/20 01:10:53;;;;;;;0.00;0.00;;;8.30;100.00;;;;;;4928536;28;20077;-80
2023/11/20 01:13:20;;;;;;;0.00;0.00;;;8.30;100.00;;;;;;4922891;28;20493;-78
2023/11/20 01:15:47;;;;;;;0.00;0.00;;;8.30;100.00;;;;;;4938250;28;20101;-79
2023/11/20 01:18:14;;;;;;;0.00;0.00;;;8.30;100.00;;;;;;4924436;28;20557;-79
2023/11/20 01:20:43;;;;;;;0.00;0.00;;;8.30;100.00;;;;;;4922478;28;20054;-78
2023/11/20 01:23:10;;;;;;;0.00;0.00;;;8.30;100.00;;;;;;4927351;28;20055;-78
2023/11/20 01:25:37;;;;;;;0.00;0.00;;;8.30;100.00;;;;;;4926524;28;20051;-78
2023/11/20 01:28:04;;;;;;;0.00;0.00;;;8.30;100.00;;;;;;5008012;28;20124;-78
2023/11/20 01:30:31;;;;;;;0.00;0.00;;;8.30;100.00;;;;;;4932335;28;20056;-78
2023/11/20 01:32:58;;;;;;;0.00;0.00;;;8.30;100.00;;;;;;4925652;28;21022;-78
2023/11/20 01:35:25;;;;;;;0.00;0.00;;;8.30;100.00;;;;;;4926535;28;20063;-78
2023/11/20 01:37:53;;;;;;;0.00;0.00;;;8.30;100.00;;;;;;4926592;28;20592;-79
2023/11/20 01:40:20;;;;;;;0.00;0.00;;;8.30;100.00;;;;;;4945539;28;20057;-78
2023/11/20 01:42:46;;;;;;;0.00;0.00;;;8.30;100.00;;;;;;4927472;28;20043;-78
2023/11/20 01:45:13;;;;;;;0.00;0.00;;;8.30;100.00;;;;;;4934180;28;20051;-79
2023/11/20 01:47:41;;;;;;;0.00;0.00;;;8.20;100.00;;;;;;4935720;28;20403;-78
2023/11/20 01:50:10;;;;;;;0.00;0.00;;;8.20;100.00;;;;;;4925727;28;20514;-78
2023/11/20 01:52:44;;;;;;;0.00;0.00;;;8.10;100.00;;;;;;4973050;28;20044;-78
2023/11/20 01:55:13;;;;;;;0.00;0.00;;;8.10;100.00;;;;;;4928051;28;20745;-78
2023/11/20 01:57:44;;;;;;;0.00;0.00;;;8.10;100.00;;;;;;4931286;28;20052;-78
2023/11/20 02:00:14;;;;;;;0.00;0.00;;;8.10;100.00;;;;;;4925379;28;20039;-78
2023/11/20 02:02:42;;;;;;;0.00;0.00;;;8.10;100.00;;;;;;4930622;28;20211;-78
2023/11/20 02:05:10;;;;;;;0.00;0.00;;;8.00;100.00;;;;;;4969278;28;20210;-78
2023/11/20 02:07:37;;;;;;;0.00;0.00;;;8.00;100.00;;;;;;4932134;28;20094;-79
2023/11/20 02:10:06;;;;;;;0.00;0.00;;;8.00;100.00;;;;;;4929097;28;20047;-78
2023/11/20 02:12:34;;;;;;;0.00;0.00;;;8.00;100.00;;;;;;4925674;28;20131;-78
2023/11/20 02:15:02;;;;;;;0.00;0.00;;;8.10;100.00;;;;;;4928060;28;20851;-78
2023/11/20 02:17:29;;;;;;;0.00;0.00;;;8.10;100.00;;;;;;4960519;28;20734;-79
2023/11/20 02:19:56;;;;;;;0.00;0.00;;;8.10;100.00;;;;;;4927956;28;20110;-78
2023/11/20 02:22:23;;;;;;;0.00;0.00;;;8.10;100.00;;;;;;4964618;28;20166;-78
2023/11/20 02:24:51;;;;;;;0.00;0.00;;;8.10;100.00;;;;;;4925155;28;20044;-78
2023/11/20 02:27:36;;;;;;;0.00;0.00;;;8.10;100.00;;;;;;4929568;28;20578;-78
2023/11/20 02:30:04;;;;;;;0.00;0.00;;;8.00;100.00;;;;;;4947814;28;20047;-78
2023/11/20 02:32:31;;;;;;;0.00;0.00;;;8.00;100.00;;;;;;4930764;28;20159;-78
2023/11/20 02:34:58;;;;;;;0.00;0.00;;;8.00;100.00;;;;;;4926840;28;20138;-79
2023/11/20 02:37:27;;;;;;;0.00;0.00;;;8.00;100.00;;;;;;4924878;28;20059;-78
2023/11/20 02:39:54;;;;;;;0.00;0.00;;;7.90;100.00;;;;;;4936936;28;20050;-78
2023/11/20 02:42:21;;;;;;;0.00;0.00;;;7.90;100.00;;;;;;4924360;28;20415;-78
2023/11/20 02:44:49;;;;;;;0.00;0.00;;;7.80;100.00;;;;;;4925707;28;20133;-78
2023/11/20 02:47:16;;;;;;;0.00;0.00;;;7.80;100.00;;;;;;4954844;28;20060;-78
2023/11/20 02:49:43;;;;;;;0.00;0.00;;;7.70;100.00;;;;;;4924841;28;20717;-78
2023/11/20 02:52:10;;;;;;;0.00;0.00;;;7.70;100.00;;;;;;4924216;28;20048;-78
2023/11/20 02:54:37;;;;;;;0.00;0.00;;;7.70;100.00;;;;;;4924361;28;20044;-78
2023/11/20 02:57:04;;;;;;;0.00;0.00;;;7.70;100.00;;;;;;4928464;28;20395;-78
2023/11/20 02:59:32;;;;;;;0.00;0.00;;;7.80;100.00;;;;;;4924465;29;20047;-78
2023/11/20 03:01:59;;;;;;;0.00;0.00;;;7.70;100.00;;;;;;4933163;28;20059;-79
2023/11/20 03:04:26;;;;;;;0.00;0.00;;;7.80;100.00;;;;;;4930443;28;20562;-78
2023/11/20 03:06:53;;;;;;;0.00;0.00;;;7.80;100.00;;;;;;4924906;28;20056;-78
2023/11/20 03:09:20;;;;;;;0.00;0.00;;;7.80;100.00;;;;;;4924866;28;20130;-78
2023/11/20 03:11:47;;;;;;;0.00;0.00;;;7.80;100.00;;;;;;4930783;28;20160;-78
2023/11/20 03:14:14;;;;;;;0.00;0.00;;;7.80;100.00;;;;;;4998820;28;20141;-78
2023/11/20 03:16:41;;;;;;;0.00;0.00;;;7.80;100.00;;;;;;4934324;28;20051;-78
2023/11/20 03:19:08;;;;;;;0.00;0.00;;;7.80;100.00;;;;;;4925118;28;20052;-78
2023/11/20 03:21:40;;;;;;;0.00;0.00;;;7.80;100.00;;;;;;4965163;28;20047;-78
2023/11/20 03:24:07;;;;;;;0.00;0.00;;;7.80;100.00;;;;;;4929858;28;20378;-78
2023/11/20 03:26:34;;;;;;;0.00;0.00;;;7.80;100.00;;;;;;4925379;28;20097;-78
2023/11/20 03:29:02;;;;;;;0.00;0.00;;;7.80;100.00;;;;;;4936226;28;20044;-78
2023/11/20 03:31:35;;;;;;;0.00;0.00;;;7.80;100.00;;;;;;5005342;28;20195;-78
2023/11/20 03:34:03;;;;;;;0.00;0.00;;;7.70;100.00;;;;;;4928977;28;20133;-78
2023/11/20 03:36:32;;;;;;;0.00;0.00;;;7.70;100.00;;;;;;4936201;28;20083;-78
2023/11/20 03:39:00;;;;;;;0.00;0.00;;;7.70;100.00;;;;;;4930309;28;20052;-78
2023/11/20 03:41:27;;;;;;;0.00;0.00;;;7.70;100.00;;;;;;4931239;28;20043;-78
2023/11/20 03:43:54;;;;;;;0.00;0.00;;;7.70;100.00;;;;;;4963017;28;20047;-78
2023/11/20 03:46:21;;;;;;;0.00;0.00;;;7.70;100.00;;;;;;4938780;28;20113;-78
2023/11/20 03:48:48;;;;;;;0.00;0.00;;;7.70;100.00;;;;;;4927562;28;20043;-69
2023/11/20 03:51:16;;;;;;;0.00;0.00;;;7.70;100.00;;;;;;4932712;28;20599;-69
2023/11/20 03:53:44;;;;;;;0.00;0.00;;;7.60;100.00;;;;;;5012681;28;20083;-69
2023/11/20 03:56:15;;;;;;;0.00;0.00;;;7.60;100.00;;;;;;4931030;28;20364;-69
2023/11/20 03:58:44;;;;;;;0.00;0.00;;;7.60;100.00;;;;;;4930897;28;20230;-69
2023/11/20 04:01:11;;;;;;;0.00;0.00;;;7.60;100.00;;;;;;4938923;28;20090;-69
2023/11/20 04:03:39;;;;;;;0.00;0.00;;;7.60;100.00;;;;;;4924907;28;20094;-69
2023/11/20 04:06:06;;;;;;;0.00;0.00;;;7.60;100.00;;;;;;4934278;29;20118;-69
2023/11/20 04:08:33;;;;;;;0.00;0.00;;;7.60;100.00;;;;;;5010539;28;20102;-69
2023/11/20 04:11:02;;;;;;;0.00;0.00;;;7.50;100.00;;;;;;4941542;28;20049;-69
2023/11/20 04:13:30;;;;;;;0.00;0.00;;;7.50;100.00;;;;;;4927670;28;20530;-69
2023/11/20 04:15:57;;;;;;;0.00;0.00;;;7.50;100.00;;;;;;4927678;28;20059;-69
2023/11/20 04:18:25;;;;;;;0.00;0.00;;;7.50;100.00;;;;;;4929007;28;20059;-69
2023/11/20 04:20:53;;;;;;;0.00;0.00;;;7.50;100.00;;;;;;4925456;28;20115;-69
2023/11/20 04:23:20;;;;;;;0.00;0.00;;;7.50;100.00;;;;;;4926855;28;20590;-69
2023/11/20 04:25:47;;;;;;;0.00;0.00;;;7.50;100.00;;;;;;4932281;28;20079;-69
2023/11/20 04:28:14;;;;;;;0.00;0.00;;;7.40;100.00;;;;;;4929543;28;20075;-69
2023/11/20 04:30:41;;;;;;;0.00;0.00;;;7.40;100.00;;;;;;4943611;28;20049;-69
2023/11/20 04:33:08;;;;;;;0.00;0.00;;;7.40;100.00;;;;;;4948838;28;20052;-68
2023/11/20 04:35:35;;;;;;;0.00;0.00;;;7.40;100.00;;;;;;4958436;28;20760;-68
2023/11/20 04:38:03;;;;;;;0.00;0.00;;;7.30;100.00;;;;;;4958983;28;20047;-68
2023/11/20 04:40:30;;;;;;;0.00;0.00;;;7.40;100.00;;;;;;4933041;28;20056;-68
2023/11/20 04:42:57;;;;;;;0.00;0.00;;;7.40;100.00;;;;;;4937813;28;20052;-68
2023/11/20 04:45:24;;;;;;;0.00;0.00;;;7.40;100.00;;;;;;4922506;28;20062;-68
2023/11/20 04:47:50;;;;;;;0.00;0.00;;;7.40;100.00;;;;;;4926120;28;20048;-68
2023/11/20 04:50:17;;;;;;;0.00;0.00;;;7.40;100.00;;;;;;4923010;28;20055;-69
2023/11/20 04:52:44;;;;;;;0.00;0.00;;;7.40;100.00;;;;;;4945602;28;20122;-68
2023/11/20 04:55:11;;;;;;;0.00;0.00;;;7.40;100.00;;;;;;4931222;28;20135;-68
2023/11/20 04:57:38;;;;;;;0.00;0.00;;;7.40;100.00;;;;;;4927411;28;20210;-68
2023/11/20 05:00:08;;;;;;;0.00;0.00;;;7.40;100.00;;;;;;4931323;28;20459;-68
2023/11/20 05:02:35;;;;;;;0.00;0.00;;;7.40;100.00;;;;;;4935667;28;20055;-68
2023/11/20 05:05:02;;;;;;;0.00;0.00;;;7.40;100.00;;;;;;4934750;28;20047;-70
2023/11/20 05:07:30;;;;;;;0.00;0.00;;;7.40;100.00;;;;;;4928955;28;20630;-67
2023/11/20 05:09:57;;;;;;;0.00;0.00;;;7.40;100.00;;;;;;4930365;28;20659;-68
2023/11/20 05:12:24;;;;;;;0.00;0.00;;;7.40;100.00;;;;;;4936046;28;20855;-68
2023/11/20 05:14:54;;;;;;;0.00;0.00;;;7.40;100.00;;;;;;4937389;28;20043;-67
2023/11/20 05:17:21;;;;;;;0.00;0.00;;;7.40;100.00;;;;;;4936818;28;20062;-68
2023/11/20 05:19:48;;;;;;;0.00;0.00;;;7.40;100.00;;;;;;4933900;28;20059;-68
2023/11/20 05:22:17;;;;;;;0.00;0.00;;;7.40;100.00;;;;;;4931001;28;20048;-67
2023/11/20 05:24:44;;;;;;;0.00;0.00;;;7.40;100.00;;;;;;4932013;28;20047;-68
2023/11/20 05:27:11;;;;;;;0.00;0.00;;;7.40;100.00;;;;;;4928612;28;20056;-67
2023/11/20 05:29:38;;;;;;;0.00;0.00;;;7.40;100.00;;;;;;4931712;28;20161;-68
2023/11/20 05:32:06;;;;;;;0.00;0.00;;;7.50;100.00;;;;;;4944000;28;20519;-68
2023/11/20 05:34:37;;;;;;;0.00;0.00;;;7.50;100.00;;;;;;4947481;28;20062;-68
2023/11/20 05:37:04;;;;;;;0.00;0.00;;;7.50;100.00;;;;;;4933600;28;20055;-67
2023/11/20 05:39:31;;;;;;;0.00;0.00;;;7.50;100.00;;;;;;5014922;28;20071;-67
2023/11/20 05:41:58;;;;;;;0.00;0.00;;;7.50;100.00;;;;;;4959390;23;20873;31
2023/11/20 05:44:25;;;;;;;0.00;0.00;;;7.50;100.00;;;;;;5026539;28;20562;-69
2023/11/20 05:46:52;;;;;;;0.00;0.00;;;7.60;100.00;;;;;;4964779;28;20059;-68
2023/11/20 05:49:19;;;;;;;0.00;0.00;;;7.60;100.00;;;;;;4964586;28;20124;-68
2023/11/20 05:51:46;;;;;;;0.00;0.00;;;7.60;100.00;;;;;;5042393;28;20137;-67
2023/11/20 05:54:13;;;;;;;0.00;0.00;;;7.60;100.00;;;;;;4962889;28;20107;-67
2023/11/20 05:56:40;;;;;;;0.00;0.00;;;7.60;100.00;;;;;;4961655;28;20547;-67
2023/11/20 05:59:10;;;;;;;0.00;0.00;;;7.60;100.00;;;;;;4962910;28;20161;-70
2023/11/20 06:01:39;;;;;;;0.00;0.00;;;7.60;100.00;;;;;;4989243;28;20050;-67
2023/11/20 06:04:08;;;;;;;0.00;0.00;;;7.60;100.00;;;;;;4962837;28;20073;-68
2023/11/20 06:06:36;;;;;;;0.00;0.00;;;7.60;100.00;;;;;;5028191;28;20055;-67
2023/11/20 06:09:10;;;;;;;0.00;0.00;;;7.60;100.00;;;;;;5028365;28;20138;-68
2023/11/20 06:11:37;;;;;;;0.00;0.00;;;7.70;100.00;;;;;;5038239;28;20557;-67
2023/11/20 06:14:04;;;;;;;0.00;0.00;;;7.70;100.00;;;;;;4964901;28;20076;-68
2023/11/20 06:16:31;;;;;;;0.00;0.00;;;7.70;100.00;;;;;;4967711;28;20124;-67
2023/11/20 06:18:58;;;;;;;0.00;0.00;;;7.70;100.00;;;;;;4960884;28;20821;-67
2023/11/20 06:21:25;;;;;;;0.00;0.00;;;7.70;100.00;;;;;;4958691;28;20057;-67
2023/11/20 06:23:53;;;;;;;0.00;0.00;;;7.70;100.00;;;;;;4974907;28;20804;-67
2023/11/20 06:26:21;;;;;;;0.00;0.00;;;7.70;100.00;;;;;;4968959;28;20055;-70
2023/11/20 06:28:48;;;;;;;0.00;0.00;;;7.80;100.00;;;;;;4968354;28;20054;-70
2023/11/20 06:31:15;;;;;;;0.00;0.00;;;7.80;100.00;;;;;;4962874;28;20491;-69
2023/11/20 06:33:42;;;;;;;0.00;0.00;;;7.80;100.00;;;;;;4976281;28;20044;-70
2023/11/20 06:36:10;;;;;;;0.00;0.00;;;7.80;100.00;;;;;;5024211;28;20640;-70
2023/11/20 06:38:37;;;;;;;0.00;0.00;;;7.80;100.00;;;;;;4961540;28;20127;-70
2023/11/20 06:41:04;;;;;;;0.00;0.00;;;7.80;100.00;;;;;;5020909;28;20509;-69
2023/11/20 06:43:31;;;;;;;0.00;0.00;;;7.90;100.00;;;;;;5024057;28;20046;-68
2023/11/20 06:45:59;;;;;;;0.00;0.00;;;7.90;100.00;;;;;;4967360;28;20097;-79
2023/11/20 06:48:28;;;;;;;0.00;0.00;;;7.90;100.00;;;;;;4966329;28;20104;-79
2023/11/20 06:50:55;;;;;;;0.00;0.00;;;7.90;100.00;;;;;;4963691;28;20051;-79
2023/11/20 06:53:22;;;;;;;0.00;0.00;;;7.90;100.00;;;;;;4971054;28;20055;-79
2023/11/20 06:55:49;;;;;;;0.00;0.00;;;7.90;100.00;;;;;;4967013;28;20089;-79
2023/11/20 06:58:16;;;;;;;0.00;0.00;;;7.90;100.00;;;;;;4971187;28;20518;-79
2023/11/20 07:00:43;;;;;;;0.00;0.00;;;7.90;100.00;;;;;;4967438;28;20071;-79
2023/11/20 07:03:10;;;;;;;0.00;0.00;;;7.90;100.00;;;;;;5030096;28;20463;-79
2023/11/20 07:05:38;;;;;;;0.00;0.00;;;7.90;100.00;;;;;;5009266;28;20051;-79
2023/11/20 07:08:08;;;;;;;0.00;0.00;;;7.90;100.00;;;;;;4973906;28;20047;-79
2023/11/20 07:10:36;;;;;;;0.00;0.00;;;7.90;100.00;;;;;;5018120;28;20062;-79
2023/11/20 07:13:03;;;;;;;0.00;0.00;;;7.90;100.00;;;;;;5057938;28;20696;-79
2023/11/20 07:15:32;;;;;;;0.00;0.00;;;7.90;100.00;;;;;;4985782;28;20059;-78
2023/11/20 07:18:00;;;;;;;0.00;0.00;;;7.90;100.00;;;;;;4985158;28;20090;-79
2023/11/20 07:20:27;;;;;;;0.00;0.00;;;7.90;100.00;;;;;;4966626;28;20055;-79
2023/11/20 07:22:58;;;;;;;0.00;0.00;;;7.90;100.00;;;;;;5002770;28;20049;-79
2023/11/20 07:25:25;;;;;;;0.00;0.00;;;7.90;100.00;;;;;;5003022;28;20567;-78
2023/11/20 07:27:52;;;;;;;0.00;0.00;;;7.90;100.00;;;;;;4958173;23;20492;-79
2023/11/20 07:30:19;;;;;;;0.00;0.00;;;8.00;100.00;;;;;;4942746;28;20720;-78
2023/11/20 07:32:47;;;;;;;0.00;0.00;;;8.00;100.00;;;;;;4922622;29;20051;-79
2023/11/20 07:35:15;;;;;;;0.35;0.35;;;8.00;100.00;;;;;;4949469;28;20064;-78
2023/11/20 07:37:42;;;;;;;0.00;0.00;;;8.00;100.00;;;;;;4904218;28;20547;-79
2023/11/20 07:40:11;;;;;;;0.00;0.00;;;8.10;100.00;;;;;;4929156;28;20141;-79
2023/11/20 07:42:40;;;;;;;0.00;0.00;;;8.10;100.00;;;;;;4941162;28;20052;-79
2023/11/20 07:45:08;;;;;;;0.00;0.00;;;8.10;100.00;;;;;;4940004;28;20144;-79
2023/11/20 07:47:35;;;;;;;0.00;0.00;;;8.10;100.00;;;;;;4925677;28;20147;-79
2023/11/20 07:50:02;;;;;;;0.00;0.00;;;8.20;100.00;;;;;;4908849;28;20087;-79
2023/11/20 07:52:31;;;;;;;0.00;0.00;;;8.20;100.00;;;;;;4926954;29;20052;-79
2023/11/20 07:54:58;;;;;;;0.00;0.00;;;8.20;100.00;;;;;;4929063;28;20138;-79
2023/11/20 07:57:25;;;;;;;0.00;0.00;;;8.20;100.00;;;;;;4928829;28;20102;-79
2023/11/20 07:59:52;;;;;;;0.00;0.00;;;8.20;100.00;;;;;;4925969;28;20060;-79
2023/11/20 08:02:20;;;;;;;0.00;0.00;;;8.30;100.00;;;;;;4921208;29;20055;-79
2023/11/20 08:04:48;;;;;;;0.00;0.00;;;8.30;100.00;;;;;;4925822;28;20167;-79
2023/11/20 08:07:16;;;;;;;0.00;0.00;;;8.30;100.00;;;;;;4927460;28;20090;-80
2023/11/20 08:09:43;;;;;;;0.00;0.00;;;8.30;100.00;;;;;;4919766;29;20055;-79
2023/11/20 08:12:10;;;;;;;0.00;0.00;;;8.40;100.00;;;;;;4926293;28;20754;-79
2023/11/20 08:14:37;;;;;;;0.00;0.00;;;8.40;100.00;;;;;;4925942;28;20064;-82
2023/11/20 08:17:04;;;;;;;0.95;0.63;;;8.40;100.00;;;;;;4907479;28;20106;-79
2023/11/20 08:19:31;;;;;;;0.00;0.00;;;8.50;100.00;;;;;;4955591;28;20055;-79
2023/11/20 08:21:58;;;;;;;0.00;0.00;;;8.50;100.00;;;;;;4925755;28;20064;-79
2023/11/20 08:24:24;;;;;;;0.10;0.10;;;8.50;100.00;;;;;;4958039;28;20055;-79
2023/11/20 08:26:52;;;;;;;0.00;0.00;;;8.60;100.00;;;;;;4925036;28;20050;-79
2023/11/20 08:29:19;;;;;;;0.00;0.00;;;8.60;100.00;;;;;;4920822;29;20397;-79
2023/11/20 08:31:49;;;;;;;0.00;0.00;;;8.60;100.00;;;;;;4926481;28;20058;-79
2023/11/20 08:34:16;;;;;;;0.00;0.00;;;8.70;100.00;;;;;;4925435;28;20143;-79
2023/11/20 08:36:48;;;;;;;0.00;0.00;;;8.70;100.00;;;;;;4914819;28;20133;-79
2023/11/20 08:39:15;;;;;;;0.00;0.00;;;8.80;100.00;;;;;;4913347;28;20058;-79
2023/11/20 08:41:42;;;;;;;0.00;0.00;;;8.80;100.00;;;;;;4922658;29;20066;-79
2023/11/20 08:44:09;;;;;;;0.00;0.00;;;8.90;100.00;;;;;;4925363;28;20164;-79
2023/11/20 08:46:36;;;;;;;0.00;0.00;;;8.90;100.00;;;;;;4915175;29;20054;-79
2023/11/20 08:49:06;;;;;;;0.00;0.00;;;8.90;100.00;;;;;;4940781;28;20056;-79
2023/11/20 08:51:33;;;;;;;0.00;0.00;;;8.90;100.00;;;;;;4930016;28;20056;-79
2023/11/20 08:54:01;;;;;;;0.00;0.00;;;9.00;100.00;;;;;;4923620;29;20044;-80
2023/11/20 08:56:28;;;;;;;0.00;0.00;;;9.00;100.00;;;;;;4927495;28;20060;-79
2023/11/20 08:58:55;;;;;;;0.00;0.00;;;9.00;100.00;;;;;;4928353;28;20107;-79
2023/11/20 09:01:30;;;;;;;0.00;0.00;;;9.10;100.00;;;;;;4934789;28;20512;-79
2023/11/20 09:03:57;;;;;;;0.00;0.00;;;9.10;100.00;;;;;;4926987;29;20058;-79
2023/11/20 09:06:24;;;;;;;0.00;0.00;;;9.10;100.00;;;;;;4924244;28;20058;-79
2023/11/20 09:08:51;;;;;;;0.00;0.00;;;9.10;100.00;;;;;;4936964;28;20140;-79
2023/11/20 09:11:17;;;;;;;0.00;0.00;;;9.10;100.00;;;;;;4925656;28;20158;-79
2023/11/20 09:13:44;;;;;;;0.00;0.00;;;9.20;100.00;;;;;;4929160;28;20071;-79
2023/11/20 09:16:11;;;;;;;0.00;0.00;;;9.20;100.00;;;;;;4910656;28;20060;-79
2023/11/20 09:18:38;;;;;;;0.00;0.00;;;9.30;100.00;;;;;;4918803;29;20062;-79
2023/11/20 09:21:06;;;;;;;0.00;0.00;;;9.40;100.00;;;;;;4904704;28;20492;-79
2023/11/20 09:23:33;;;;;;;0.00;0.00;;;9.40;100.00;;;;;;4929185;29;20055;-79
2023/11/20 09:26:00;;;;;;;0.00;0.00;;;9.40;100.00;;;;;;4928143;29;20094;-79
2023/11/20 09:28:26;;;;;;;0.00;0.00;;;9.40;100.00;;;;;;4928582;28;20079;-80
2023/11/20 09:30:54;;;;;;;0.00;0.00;;;9.50;100.00;;;;;;4934986;28;20643;-80
2023/11/20 09:33:21;;;;;;;0.00;0.00;;;9.50;100.00;;;;;;4948058;28;20059;-79
2023/11/20 09:35:48;;;;;;;0.00;0.00;;;9.50;100.00;;;;;;4927269;28;20083;-80
2023/11/20 09:38:15;;;;;;;0.00;0.00;;;9.60;100.00;;;;;;4928678;29;20130;-79
2023/11/20 09:40:42;;;;;;;0.00;0.00;;;9.60;100.00;;;;;;4908344;28;20620;-79
2023/11/20 09:43:09;;;;;;;0.00;0.00;;;9.60;100.00;;;;;;4917473;28;20755;-79
2023/11/20 09:45:39;;;;;;;0.00;0.00;;;9.70;100.00;;;;;;4909427;28;20090;-80
2023/11/20 09:48:20;;;;;;;0.00;0.00;;;9.70;100.00;;;;;;4914741;28;20048;-79
2023/11/20 09:50:49;;;;;;;0.00;0.00;;;9.70;100.00;;;;;;4925075;29;20048;-80
2023/11/20 09:53:37;;;;;;;0.00;0.00;;;9.80;100.00;;;;;;4912007;28;20134;-79
2023/11/20 09:56:06;;;;;;;0.00;0.00;;;9.80;100.00;;;;;;4937363;28;20427;-80
2023/11/20 09:58:34;;;;;;;0.00;0.00;;;9.90;100.00;;;;;;4965572;28;20060;-79
2023/11/20 10:04:39;;;;;;;0.00;0.00;;;10.00;100.00;;;;;;5023417;28;20081;-68
2023/11/20 10:07:07;;;;;;;0.00;0.00;;;10.10;100.00;;;;;;5023278;28;20052;-68
2023/11/20 10:09:36;;;;;;;0.00;0.00;;;10.10;100.00;;;;;;5022633;28;20045;-68
2023/11/20 10:12:09;;;;;;;0.00;0.00;;;10.20;100.00;;;;;;5022415;28;20095;-68
2023/11/20 10:14:37;;;;;;;0.00;0.00;;;10.30;100.00;;;;;;5018164;28;20117;-68
2023/11/20 10:17:05;;;;;;;0.00;0.00;;;10.30;100.00;;;;;;5019052;28;20532;-68
2023/11/20 10:19:32;;;;;;;0.00;0.00;;;10.30;100.00;;;;;;5022676;28;20064;-68
2023/11/20 10:22:04;;;;;;;0.00;0.00;;;10.40;100.00;;;;;;5023427;28;20060;-68
2023/11/20 10:24:31;;;;;;;0.00;0.00;;;10.40;100.00;;;;;;5017694;28;20075;-68
2023/11/20 10:26:59;;;;;;;0.00;0.00;;;10.50;100.00;;;;;;5019685;28;20053;-68
2023/11/20 10:29:26;;;;;;;0.00;0.00;;;10.50;100.00;;;;;;5010742;28;20112;-68
2023/11/20 10:31:57;;;;;;;0.00;0.00;;;10.60;100.00;;;;;;5013510;28;20765;-68
2023/11/20 10:34:26;;;;;;;0.00;0.00;;;10.60;100.00;;;;;;5016407;28;20052;-68
2023/11/20 10:37:10;;;;;;;0.00;0.00;;;10.60;100.00;;;;;;5006263;28;20053;-68
2023/11/20 10:39:38;;;;;;;0.00;0.00;;;10.60;100.00;;;;;;5016877;28;20842;-68
2023/11/20 10:42:05;;;;;;;0.00;0.00;;;10.70;100.00;;;;;;5024297;28;20108;-68
2023/11/20 10:44:35;;;;;;;0.00;0.00;;;10.70;100.00;;;;;;5005124;28;20714;-68
2023/11/20 10:47:05;;;;;;;0.00;0.00;;;10.80;100.00;;;;;;5015970;28;20048;-68
2023/11/20 10:49:34;;;;;;;0.00;0.00;;;10.80;100.00;;;;;;5020414;28;20050;-68
2023/11/20 10:52:09;;;;;;;0.00;0.00;;;10.80;100.00;;;;;;5021974;28;20053;-68
2023/11/20 10:54:52;;;;;;;0.00;0.00;;;10.70;100.00;;;;;;5022420;28;20051;-68
2023/11/20 10:57:20;;;;;;;0.00;0.00;;;10.70;100.00;;;;;;5001429;28;20065;-68
2023/11/20 10:59:52;;;;;;;0.00;0.00;;;10.70;100.00;;;;;;5019856;28;20057;-68
2023/11/20 11:02:20;;;;;;;0.00;0.00;;;10.60;100.00;;;;;;5017269;28;20249;-68
2023/11/20 11:04:51;;;;;;;0.00;0.00;;;10.50;100.00;;;;;;5020981;28;20056;-67
2023/11/20 11:07:22;;;;;;;0.00;0.00;;;10.50;100.00;;;;;;5017317;28;20113;-68
2023/11/20 11:09:50;;;;;;;0.00;0.00;;;10.50;100.00;;;;;;5025799;28;20045;-68
2023/11/20 11:12:20;;;;;;;0.00;0.00;;;10.60;100.00;;;;;;5021093;28;20057;-68
2023/11/20 11:14:47;;;;;;;0.00;0.00;;;10.60;100.00;;;;;;5018628;28;20042;-68
2023/11/20 11:17:21;;;;;;;0.00;0.00;;;10.60;100.00;;;;;;5020525;28;20088;-68
2023/11/20 11:19:59;;;;;;;0.00;0.00;;;10.60;100.00;;;;;;5020405;28;20069;-68
2023/11/20 11:22:35;;;;;;;0.00;0.00;;;10.70;100.00;;;;;;5023975;28;20053;-68
2023/11/20 11:25:09;;;;;;;0.00;0.00;;;10.80;100.00;;;;;;5011032;28;20076;-68
2023/11/20 11:27:46;;;;;;;0.00;0.00;;;10.80;100.00;;;;;;5021749;28;20140;-68
2023/11/20 11:30:17;;;;;;;0.00;0.00;;;10.90;100.00;;;;;;5023181;28;20140;-68
2023/11/20 11:33:09;;;;;;;0.00;0.00;;;11.00;100.00;;;;;;5023408;28;20107;-68
2023/11/20 11:35:52;;;;;;;0.00;0.00;;;11.10;100.00;;;;;;5022089;28;20060;-68
2023/11/20 11:38:49;;;;;;;0.00;0.00;;;11.10;100.00;;;;;;5020466;28;20049;-68
2023/11/20 11:41:35;;;;;;;0.00;0.00;;;11.10;100.00;;;;;;5012708;28;20045;-67
2023/11/20 11:44:06;;;;;;;;;;;11.10;100.00;;;;;;5018926;28;20398;-68
2023/11/20 11:46:36;;;;;;;0.00;0.00;;;11.00;100.00;;;;;;5019900;28;19964;-68
2023/11/20 11:49:19;;;;;;;0.00;0.00;;;11.00;100.00;;;;;;5021277;28;20458;-68
2023/11/20 11:51:57;;;;;;;0.00;0.00;;;11.00;100.00;;;;;;5019515;28;20053;-68
2023/11/20 11:54:26;;;;;;;0.00;0.00;;;11.00;100.00;;;;;;5016596;28;20064;-68
2023/11/20 11:56:59;;;;;;;0.00;0.00;;;11.00;100.00;;;;;;5022115;28;20049;-68
2023/11/20 11:59:46;;;;;;;0.00;0.00;;;10.90;100.00;;;;;;5017837;28;20130;-68
2023/11/20 12:02:20;;;;;;;0.00;0.00;;;10.90;100.00;;;;;;5001012;28;20045;-68
2023/11/20 12:04:56;;;;;;;0.00;0.00;;;10.90;100.00;;;;;;5015256;28;20395;-70
2023/11/20 12:07:45;;;;;;;0.00;0.00;;;10.90;100.00;;;;;;5023445;28;20061;-68
2023/11/20 12:10:13;;;;;;;0.00;0.00;;;10.90;100.00;;;;;;5024431;28;20406;-68
2023/11/20 12:12:53;;;;;;;0.00;0.00;;;10.80;100.00;;;;;;5017313;28;20053;-68
2023/11/20 12:15:30;;;;;;;0.00;0.00;;;10.80;100.00;;;;;;5017866;28;20136;-68
2023/11/20 12:18:10;;;;;;;0.00;0.00;;;10.80;100.00;;;;;;5020443;28;20218;-68
2023/11/20 12:20:38;;;;;;;0.00;0.00;;;10.80;100.00;;;;;;5021656;28;20055;-68
2023/11/20 12:23:09;;;;;;;0.00;0.00;;;10.80;100.00;;;;;;5015788;28;20049;-68
2023/11/20 12:25:37;;;;;;;0.00;0.00;;;10.70;100.00;;;;;;5022755;28;20106;-68
2023/11/20 12:28:08;;;;;;;0.00;0.00;;;10.70;100.00;;;;;;5022798;28;20092;-69
2023/11/20 12:30:35;;;;;;;0.00;0.00;;;10.70;100.00;;;;;;5022716;28;20046;-68
2023/11/20 12:33:02;;;;;;;0.00;0.00;;;10.70;100.00;;;;;;5017590;28;20099;-68
2023/11/20 12:35:31;;;;;;;0.00;0.00;;;10.70;100.00;;;;;;5022289;28;20052;-68
2023/11/20 12:38:02;;;;;;;0.00;0.00;;;10.70;100.00;;;;;;5015295;28;20101;-68
2023/11/20 12:40:29;;;;;;;0.00;0.00;;;10.70;100.00;;;;;;5021538;28;20913;-68
2023/11/20 12:42:56;;;;;;;0.00;0.00;;;10.70;100.00;;;;;;5011892;28;20045;-68
2023/11/20 12:45:24;;;;;;;0.00;0.00;;;10.60;100.00;;;;;;5020459;28;20091;-68
2023/11/20 12:47:51;;;;;;;0.00;0.00;;;10.70;100.00;;;;;;5023103;28;20139;-68
2023/11/20 12:50:19;;;;;;;0.00;0.00;;;10.70;100.00;;;;;;5022115;28;20050;-68
2023/11/20 12:52:47;;;;;;;0.00;0.00;;;10.70;100.00;;;;;;5021583;28;20056;-68
2023/11/20 12:55:16;;;;;;;0.00;0.00;;;10.70;100.00;;;;;;5018602;28;20078;-68
2023/11/20 12:57:43;;;;;;;0.00;0.00;;;10.70;100.00;;;;;;5002241;28;20049;-68